createdAt,value
2019-05-10T00:01:43.947Z,88.30
2019-05-10T00:04:30.331Z,87.80
2019-05-10T00:07:16.969Z,88.00
2019-05-10T00:09:44.837Z,88.40
2019-05-10T00:12:17.687Z,88.40
2019-05-10T00:14:47.798Z,88.30
2019-05-10T00:17:18.115Z,88.30
2019-05-10T00:19:46.682Z,87.70
2019-05-10T00:22:15.363Z,87.80
2019-05-10T00:24:43.900Z,87.30
2019-05-10T00:27:12.588Z,87.70
2019-05-10T00:29:41.103Z,87.30
2019-05-10T00:32:09.676Z,87.60
2019-05-10T00:34:38.230Z,87.90
2019-05-10T00:37:08.950Z,87.80
2019-05-10T00:39:37.503Z,87.80
2019-05-10T00:42:06.109Z,87.60
2019-05-10T00:44:34.591Z,87.30
2019-05-10T00:47:03.067Z,87.60
2019-05-10T00:49:31.549Z,87.80
2019-05-10T00:52:00.056Z,88.10
2019-05-10T00:54:28.509Z,88.10
2019-05-10T00:56:57.014Z,88.20
2019-05-10T00:59:25.493Z,88.20
2019-05-10T01:01:54.004Z,88.20
2019-05-10T01:04:22.557Z,88.70
2019-05-10T01:06:51.100Z,88.50
2019-05-10T01:09:19.598Z,88.70
2019-05-10T01:11:48.078Z,88.40
2019-05-10T01:14:16.850Z,89.00
2019-05-10T01:16:45.647Z,89.10
2019-05-10T01:19:14.196Z,89.70
2019-05-10T01:21:43.003Z,90.00
2019-05-10T01:24:11.519Z,90.10
2019-05-10T01:26:40.062Z,90.40
2019-05-10T01:29:08.526Z,90.90
2019-05-10T01:31:37.737Z,90.60
2019-05-10T01:34:09.178Z,90.30
2019-05-10T01:36:39.534Z,90.20
2019-05-10T01:39:08.230Z,90.60
2019-05-10T01:41:36.684Z,90.80
2019-05-10T01:44:05.220Z,90.80
2019-05-10T01:46:33.690Z,91.00
2019-05-10T01:49:02.444Z,91.20
2019-05-10T01:51:31.344Z,91.30
2019-05-10T01:53:59.886Z,91.30
2019-05-10T01:56:28.404Z,91.40
2019-05-10T01:58:57.009Z,91.30
2019-05-10T02:01:25.912Z,91.20
2019-05-10T02:03:54.396Z,91.30
2019-05-10T02:06:22.944Z,91.20
2019-05-10T02:08:51.688Z,91.40
2019-05-10T02:11:20.234Z,91.50
2019-05-10T02:13:50.691Z,91.50
2019-05-10T02:16:19.218Z,91.40
2019-05-10T02:18:47.674Z,91.40
2019-05-10T02:21:16.233Z,91.50
2019-05-10T02:23:44.700Z,91.40
2019-05-10T02:26:13.166Z,91.50
2019-05-10T02:28:41.653Z,91.70
2019-05-10T02:31:11.661Z,91.90
2019-05-10T02:33:40.243Z,91.80
2019-05-10T02:36:09.080Z,92.00
2019-05-10T02:38:37.563Z,92.00
2019-05-10T02:41:06.113Z,92.00
2019-05-10T02:43:34.862Z,92.00
2019-05-10T02:46:03.327Z,91.90
2019-05-10T02:48:31.872Z,91.90
2019-05-10T02:51:00.580Z,91.80
2019-05-10T02:53:29.084Z,91.70
2019-05-10T02:55:58.499Z,91.80
2019-05-10T02:58:27.245Z,91.60
2019-05-10T03:00:57.776Z,91.50
2019-05-10T03:03:28.579Z,91.60
2019-05-10T03:05:57.517Z,91.70
2019-05-10T03:08:27.631Z,91.60
2019-05-10T03:10:58.504Z,91.40
2019-05-10T03:13:30.581Z,91.10
2019-05-10T03:16:03.923Z,91.00
2019-05-10T03:18:32.998Z,91.00
2019-05-10T03:21:02.006Z,91.20
2019-05-10T03:23:30.765Z,91.30
2019-05-10T03:26:00.393Z,91.20
2019-05-10T03:28:28.952Z,91.20
2019-05-10T03:30:59.245Z,91.20
2019-05-10T03:33:27.990Z,91.20
2019-05-10T03:35:56.532Z,91.30
2019-05-10T03:38:25.089Z,91.40
2019-05-10T03:40:53.788Z,91.40
2019-05-10T03:43:22.373Z,91.40
2019-05-10T03:45:50.916Z,91.30
2019-05-10T03:48:19.887Z,91.20
2019-05-10T03:50:48.436Z,91.00
2019-05-10T03:53:16.909Z,91.10
2019-05-10T03:55:45.445Z,91.10
2019-05-10T03:58:13.996Z,91.10
2019-05-10T04:00:42.526Z,91.20
2019-05-10T04:03:11.103Z,91.20
2019-05-10T04:05:39.651Z,91.30
2019-05-10T04:08:08.294Z,91.30
2019-05-10T04:10:36.852Z,91.60
2019-05-10T04:13:05.482Z,91.30
2019-05-10T04:15:34.061Z,91.40
2019-05-10T04:18:02.543Z,91.40
2019-05-10T04:20:32.962Z,91.30
2019-05-10T04:23:02.470Z,91.30
2019-05-10T04:25:31.035Z,91.20
2019-05-10T04:27:59.522Z,91.30
2019-05-10T04:30:31.721Z,91.20
2019-05-10T04:32:58.340Z,91.10
2019-05-10T04:35:26.891Z,91.00
2019-05-10T04:37:55.372Z,91.20
2019-05-10T04:40:24.111Z,91.20
2019-05-10T04:42:52.610Z,91.20
2019-05-10T04:45:21.073Z,91.10
2019-05-10T04:47:49.581Z,91.00
2019-05-10T04:50:18.216Z,91.00
2019-05-10T04:52:46.803Z,91.10
2019-05-10T04:55:15.412Z,91.00
2019-05-10T04:57:50.617Z,91.00
2019-05-10T05:00:14.756Z,91.00
2019-05-10T05:02:43.342Z,91.10
2019-05-10T05:05:12.649Z,91.10
2019-05-10T05:07:41.214Z,91.10
2019-05-10T05:10:09.978Z,91.00
2019-05-10T05:12:38.638Z,91.00
2019-05-10T05:15:09.181Z,91.00
2019-05-10T05:17:37.735Z,90.80
2019-05-10T05:20:06.412Z,90.60
2019-05-10T05:22:34.970Z,90.50
2019-05-10T05:25:04.606Z,90.40
2019-05-10T05:27:33.170Z,90.40
2019-05-10T05:30:01.711Z,90.40
2019-05-10T05:32:30.250Z,90.40
2019-05-10T05:34:58.720Z,90.20
2019-05-10T05:37:27.206Z,90.40
2019-05-10T05:39:55.680Z,90.50
2019-05-10T05:42:27.860Z,90.70
2019-05-10T05:44:54.372Z,90.70
2019-05-10T05:47:22.939Z,90.60
2019-05-10T05:49:51.478Z,90.50
2019-05-10T05:52:19.974Z,90.90
2019-05-10T05:54:53.017Z,89.70
2019-05-10T05:57:22.284Z,90.30
2019-05-10T05:59:57.580Z,90.00
2019-05-10T06:02:22.120Z,88.20
2019-05-10T06:04:50.606Z,87.00
2019-05-10T06:07:19.077Z,86.60
2019-05-10T06:09:47.596Z,85.90
2019-05-10T06:12:16.068Z,85.60
2019-05-10T06:14:49.703Z,85.20
2019-05-10T06:17:14.749Z,82.60
2019-05-10T06:19:43.208Z,81.80
2019-05-10T06:22:11.758Z,81.90
2019-05-10T06:24:46.900Z,82.00
2019-05-10T06:27:12.041Z,80.50
2019-05-10T06:29:43.062Z,78.30
2019-05-10T06:32:10.821Z,77.40
2019-05-10T06:34:41.376Z,77.70
2019-05-10T06:37:11.521Z,78.60
2019-05-10T06:39:40.004Z,79.40
2019-05-10T06:42:08.496Z,79.40
2019-05-10T06:44:37.050Z,80.40
2019-05-10T06:47:08.152Z,79.70
2019-05-10T06:49:41.659Z,80.60
2019-05-10T06:52:06.347Z,81.20
2019-05-10T06:54:34.856Z,81.60
2019-05-10T06:57:03.343Z,81.40
2019-05-10T06:59:31.825Z,81.30
2019-05-10T07:02:00.376Z,81.60
2019-05-10T07:04:28.957Z,80.80
2019-05-10T07:06:57.545Z,81.10
2019-05-10T07:09:26.077Z,81.30
2019-05-10T07:11:54.556Z,82.30
2019-05-10T07:14:25.409Z,82.20
2019-05-10T07:16:56.665Z,82.00
2019-05-10T07:19:23.604Z,81.10
2019-05-10T07:21:52.137Z,81.30
2019-05-10T07:24:25.033Z,80.10
2019-05-10T07:26:51.532Z,80.50
2019-05-10T07:29:29.667Z,80.60
2019-05-10T07:31:50.333Z,80.30
2019-05-10T07:34:18.833Z,80.10
2019-05-10T07:36:47.416Z,80.40
2019-05-10T07:39:16.017Z,80.50
2019-05-10T07:41:44.560Z,79.70
2019-05-10T07:44:13.119Z,79.90
2019-05-10T07:46:46.447Z,77.10
2019-05-10T07:49:13.740Z,78.00
2019-05-10T07:51:42.242Z,75.50
2019-05-10T07:54:10.729Z,73.10
2019-05-10T07:56:45.407Z,73.60
2019-05-10T07:59:09.533Z,72.50
2019-05-10T08:01:38.067Z,73.20
2019-05-10T08:04:08.829Z,73.20
2019-05-10T08:06:43.534Z,75.00
2019-05-10T08:09:09.691Z,71.80
2019-05-10T08:11:39.190Z,71.50
2019-05-10T08:14:11.266Z,70.20
2019-05-10T08:16:40.152Z,70.30
2019-05-10T08:19:08.687Z,68.80
2019-05-10T08:21:37.159Z,66.90
2019-05-10T08:24:13.481Z,64.30
2019-05-10T08:26:36.257Z,64.20
2019-05-10T08:29:07.769Z,67.10
2019-05-10T08:31:40.360Z,63.40
2019-05-10T08:34:06.771Z,62.50
2019-05-10T08:36:37.157Z,60.50
2019-05-10T08:39:10.711Z,60.60
2019-05-10T08:41:37.432Z,59.90
2019-05-10T08:44:16.761Z,58.40
2019-05-10T08:46:41.227Z,57.50
2019-05-10T08:49:06.543Z,56.10
2019-05-10T08:51:43.810Z,56.10
2019-05-10T08:54:06.267Z,58.30
2019-05-10T08:56:36.745Z,59.40
2019-05-10T08:59:09.426Z,58.30
2019-05-10T09:01:44.438Z,57.50
2019-05-10T09:04:07.139Z,57.70
2019-05-10T09:06:36.076Z,59.60
2019-05-10T09:09:08.487Z,59.50
2019-05-10T09:11:37.267Z,57.50
2019-05-10T09:14:05.884Z,61.60
2019-05-10T09:16:39.565Z,60.10
2019-05-10T09:19:04.619Z,59.50
2019-05-10T09:21:33.095Z,54.90
2019-05-10T09:24:06.140Z,54.80
2019-05-10T09:26:32.270Z,54.30
2019-05-10T09:29:02.467Z,55.30
2019-05-10T09:31:32.683Z,53.30
2019-05-10T09:34:02.392Z,53.50
2019-05-10T09:36:36.038Z,54.90
2019-05-10T09:39:09.118Z,53.80
2019-05-10T09:41:38.206Z,52.10
2019-05-10T09:44:05.925Z,53.70
2019-05-10T09:46:34.613Z,56.40
2019-05-10T09:49:09.988Z,56.10
2019-05-10T09:51:33.652Z,52.80
2019-05-10T09:54:02.114Z,52.10
2019-05-10T09:56:32.900Z,47.60
2019-05-10T09:59:00.872Z,49.00
2019-05-10T10:01:29.326Z,48.30
2019-05-10T10:03:58.414Z,45.10
2019-05-10T10:06:29.836Z,49.70
2019-05-10T10:09:00.966Z,48.50
2019-05-10T10:11:28.599Z,47.70
2019-05-10T10:13:59.975Z,44.60
2019-05-10T10:16:28.181Z,45.70
2019-05-10T10:18:57.059Z,44.50
2019-05-10T10:21:34.937Z,44.10
2019-05-10T10:24:00.449Z,45.30
2019-05-10T10:26:27.901Z,44.90
2019-05-10T10:28:57.846Z,42.40
2019-05-10T10:31:32.546Z,43.90
2019-05-10T10:34:00.407Z,42.30
2019-05-10T10:36:27.580Z,40.50
2019-05-10T10:38:57.947Z,41.70
2019-05-10T10:41:31.503Z,43.40
2019-05-10T10:43:58.367Z,37.90
2019-05-10T10:46:28.086Z,42.30
2019-05-10T10:48:56.736Z,38.80
2019-05-10T10:51:32.282Z,40.20
2019-05-10T10:53:58.430Z,38.70
2019-05-10T10:56:27.626Z,36.60
2019-05-10T10:58:58.168Z,36.90
2019-05-10T11:01:37.815Z,37.50
2019-05-10T11:03:56.889Z,37.20
2019-05-10T11:06:25.350Z,38.80
2019-05-10T11:08:53.818Z,38.00
2019-05-10T11:11:22.652Z,40.20
2019-05-10T11:14:02.161Z,42.00
2019-05-10T11:16:21.393Z,41.20
2019-05-10T11:18:51.930Z,40.00
2019-05-10T11:21:23.319Z,41.80
2019-05-10T11:23:50.286Z,41.50
2019-05-10T11:26:18.787Z,43.90
2019-05-10T11:28:47.301Z,42.80
2019-05-10T11:31:16.023Z,40.40
2019-05-10T11:33:47.505Z,42.30
2019-05-10T11:36:15.181Z,41.70
2019-05-10T11:38:47.118Z,39.80
2019-05-10T11:41:21.280Z,40.10
2019-05-10T11:43:44.078Z,39.50
2019-05-10T11:46:12.578Z,40.50
2019-05-10T11:48:42.180Z,39.10
2019-05-10T11:51:15.889Z,40.80
2019-05-10T11:53:41.673Z,41.30
2019-05-10T11:56:14.061Z,40.60
2019-05-10T11:58:47.907Z,44.10
2019-05-10T12:01:17.647Z,44.70
2019-05-10T12:03:42.778Z,42.40
2019-05-10T12:06:12.131Z,41.20
2019-05-10T12:08:41.847Z,40.60
2019-05-10T12:11:27.829Z,43.70
2019-05-10T12:13:43.250Z,41.00
2019-05-10T12:16:16.569Z,40.90
2019-05-10T12:19:01.196Z,41.00
2019-05-10T12:21:12.911Z,41.00
2019-05-10T12:23:50.420Z,41.10
2019-05-10T12:28:41.872Z,36.10
2019-05-10T12:31:13.426Z,38.50
2019-05-10T12:33:44.749Z,39.30
2019-05-10T12:36:22.232Z,38.70
2019-05-10T12:38:41.146Z,40.70
2019-05-10T12:41:09.636Z,39.90
2019-05-10T12:43:38.244Z,40.60
2019-05-10T12:46:06.900Z,40.50
2019-05-10T12:48:35.862Z,39.70
2019-05-10T12:51:11.373Z,39.70
2019-05-10T12:53:36.584Z,41.90
2019-05-10T12:56:05.390Z,41.70
2019-05-10T12:58:33.896Z,38.50
2019-05-10T13:01:02.362Z,41.30
2019-05-10T13:03:33.494Z,43.50
2019-05-10T13:06:01.095Z,41.50
2019-05-10T13:08:29.634Z,39.40
2019-05-10T13:10:58.142Z,43.70
2019-05-10T13:13:29.817Z,45.60
2019-05-10T13:15:56.926Z,45.40
2019-05-10T13:18:48.172Z,44.50
2019-05-10T13:20:55.638Z,46.30
2019-05-10T13:23:24.474Z,49.70
2019-05-10T13:25:53.139Z,49.30
2019-05-10T13:28:21.632Z,41.70
2019-05-10T13:30:50.191Z,42.10
2019-05-10T13:33:28.413Z,41.30
2019-05-10T13:35:56.718Z,40.20
2019-05-10T13:38:22.922Z,40.80
2019-05-10T13:40:51.392Z,40.20
2019-05-10T13:43:26.506Z,38.90
2019-05-10T13:45:50.106Z,40.70
2019-05-10T13:48:18.699Z,40.90
2019-05-10T13:50:49.222Z,41.70
2019-05-10T13:53:21.081Z,43.00
2019-05-10T13:55:48.034Z,41.70
2019-05-10T13:58:16.581Z,41.40
2019-05-10T14:00:45.600Z,40.80
2019-05-10T14:03:14.158Z,40.40
2019-05-10T14:05:42.924Z,39.70
2019-05-10T14:08:11.483Z,40.60
2019-05-10T14:10:39.953Z,40.00
2019-05-10T14:13:10.439Z,42.20
2019-05-10T14:15:38.654Z,41.20
2019-05-10T14:18:07.141Z,41.40
2019-05-10T14:20:35.698Z,40.70
2019-05-10T14:23:04.293Z,42.10
2019-05-10T14:25:36.157Z,43.10
2019-05-10T14:28:09.646Z,43.60
2019-05-10T14:30:35.005Z,44.60
2019-05-10T14:33:08.892Z,41.80
2019-05-10T14:35:35.720Z,43.80
2019-05-10T14:38:08.226Z,46.80
2019-05-10T14:40:34.415Z,48.90
2019-05-10T14:43:02.945Z,51.30
2019-05-10T14:45:31.441Z,53.10
2019-05-10T14:47:59.914Z,53.60
2019-05-10T14:50:28.686Z,54.70
2019-05-10T14:52:57.268Z,55.90
2019-05-10T14:55:28.073Z,56.40
2019-05-10T14:57:56.304Z,56.80
2019-05-10T15:00:25.317Z,58.70
2019-05-10T15:02:56.685Z,57.60
2019-05-10T15:05:24.091Z,58.30
2019-05-10T15:07:52.597Z,60.20
2019-05-10T15:10:21.068Z,59.40
2019-05-10T15:12:49.819Z,59.50
2019-05-10T15:15:18.638Z,60.60
2019-05-10T15:17:47.129Z,62.20
2019-05-10T15:20:16.550Z,62.10
2019-05-10T15:22:45.143Z,62.00
2019-05-10T15:25:14.291Z,63.10
2019-05-10T15:27:44.325Z,63.80
2019-05-10T15:30:13.096Z,63.20
2019-05-10T15:32:42.065Z,64.20
2019-05-10T15:35:10.686Z,64.60
2019-05-10T15:37:46.384Z,64.80
2019-05-10T15:40:09.696Z,66.70
2019-05-10T15:42:38.634Z,65.90
2019-05-10T15:45:12.243Z,66.30
2019-05-10T15:47:50.562Z,65.60
2019-05-10T15:50:10.208Z,65.80
2019-05-10T15:52:39.822Z,65.40
2019-05-10T15:55:09.343Z,65.00
2019-05-10T15:57:37.916Z,66.80
2019-05-10T16:00:07.720Z,64.50
2019-05-10T16:02:36.237Z,68.40
2019-05-10T16:05:23.315Z,67.60
2019-05-10T16:07:39.355Z,66.80
2019-05-10T16:10:08.685Z,67.30
2019-05-10T16:12:37.905Z,68.20
2019-05-10T16:15:13.660Z,68.20
2019-05-10T16:17:39.189Z,69.20
2019-05-10T16:20:07.963Z,71.20
2019-05-10T16:22:37.521Z,69.80
2019-05-10T16:25:07.431Z,71.40
2019-05-10T16:27:41.649Z,72.00
2019-05-10T16:30:11.869Z,72.30
2019-05-10T16:32:39.680Z,72.60
2019-05-10T16:35:13.189Z,74.50
2019-05-10T16:37:41.504Z,75.00
2019-05-10T16:40:10.314Z,74.90
2019-05-10T16:42:39.009Z,74.80
2019-05-10T16:45:08.021Z,75.50
2019-05-10T16:47:36.562Z,76.90
2019-05-10T16:50:08.612Z,75.90
2019-05-10T16:52:37.233Z,76.00
2019-05-10T16:55:09.594Z,75.40
2019-05-10T16:57:39.379Z,75.40
2019-05-10T17:00:10.707Z,76.20
2019-05-10T17:02:42.144Z,76.20
2019-05-10T17:05:15.206Z,77.20
2019-05-10T17:07:40.742Z,76.30
2019-05-10T17:10:10.196Z,76.00
2019-05-10T17:12:38.683Z,75.90
2019-05-10T17:15:07.405Z,76.30
2019-05-10T17:17:37.073Z,75.20
2019-05-10T17:20:14.087Z,74.90
2019-05-10T17:22:38.732Z,74.40
2019-05-10T17:25:08.546Z,74.60
2019-05-10T17:27:37.082Z,75.80
2019-05-10T17:30:07.122Z,76.20
2019-05-10T17:32:35.698Z,75.90
2019-05-10T17:35:07.152Z,76.10
2019-05-10T17:37:37.320Z,76.40
2019-05-10T17:40:12.298Z,76.10
2019-05-10T17:42:41.776Z,76.50
2019-05-10T17:45:12.561Z,77.30
2019-05-10T17:47:41.025Z,78.50
2019-05-10T17:50:10.346Z,79.30
2019-05-10T17:52:38.834Z,78.50
2019-05-10T17:55:11.076Z,78.60
2019-05-10T17:57:37.699Z,79.10
2019-05-10T18:00:08.195Z,79.40
2019-05-10T18:02:38.827Z,78.30
2019-05-10T18:05:08.418Z,77.90
2019-05-10T18:07:37.416Z,78.10
2019-05-10T18:10:07.220Z,79.00
2019-05-10T18:12:38.052Z,79.20
2019-05-10T18:15:07.979Z,79.00
2019-05-10T18:17:36.538Z,78.50
2019-05-10T18:20:06.940Z,78.00
2019-05-10T18:22:43.330Z,79.00
2019-05-10T18:25:06.282Z,78.90
2019-05-10T18:27:34.879Z,79.00
2019-05-10T18:30:03.497Z,78.90
2019-05-10T18:32:35.389Z,78.30
2019-05-10T18:35:13.303Z,78.20
2019-05-10T18:37:33.033Z,77.90
2019-05-10T18:40:01.588Z,79.80
2019-05-10T18:42:31.880Z,79.50
2019-05-10T18:45:00.509Z,78.90
2019-05-10T18:47:29.056Z,79.80
2019-05-10T18:49:57.574Z,80.00
2019-05-10T18:52:26.137Z,79.90
2019-05-10T18:54:54.654Z,79.40
2019-05-10T18:57:23.163Z,79.30
2019-05-10T18:59:51.646Z,79.70
2019-05-10T19:02:20.281Z,79.50
2019-05-10T19:04:52.131Z,79.90
2019-05-10T19:07:19.537Z,79.50
2019-05-10T19:09:48.465Z,78.70
2019-05-10T19:12:18.780Z,78.50
2019-05-10T19:14:47.238Z,78.80
2019-05-10T19:17:15.817Z,78.60
2019-05-10T19:19:44.319Z,78.70
2019-05-10T19:22:12.795Z,79.00
2019-05-10T19:24:41.270Z,78.70
2019-05-10T19:27:10.152Z,78.00
2019-05-10T19:29:45.363Z,79.00
2019-05-10T19:32:11.471Z,79.30
2019-05-10T19:34:39.143Z,79.30
2019-05-10T19:37:07.635Z,79.80
2019-05-10T19:39:36.134Z,80.40
2019-05-10T19:42:06.290Z,80.70
2019-05-10T19:44:40.406Z,80.80
2019-05-10T19:47:05.659Z,81.10
2019-05-10T19:49:34.241Z,81.40
2019-05-10T19:52:02.728Z,80.80
2019-05-10T19:54:31.216Z,80.90
2019-05-10T19:57:02.066Z,80.40
2019-05-10T19:59:30.615Z,80.40
2019-05-10T20:01:59.161Z,80.00
2019-05-10T20:04:27.662Z,79.90
2019-05-10T20:06:56.142Z,80.50
2019-05-10T20:09:24.639Z,81.00
2019-05-10T20:11:53.190Z,81.30
2019-05-10T20:14:21.748Z,82.10
2019-05-10T20:16:53.251Z,82.40
2019-05-10T20:19:20.600Z,82.20
2019-05-10T20:21:49.212Z,82.20
2019-05-10T20:24:17.711Z,82.30
2019-05-10T20:26:46.312Z,82.50
2019-05-10T20:29:14.813Z,82.90
2019-05-10T20:31:43.353Z,82.80
2019-05-10T20:34:11.884Z,83.80
2019-05-10T20:36:40.481Z,83.60
2019-05-10T20:39:09.085Z,84.30
2019-05-10T20:41:37.642Z,84.50
2019-05-10T20:44:06.539Z,84.70
2019-05-10T20:46:35.090Z,84.40
2019-05-10T20:49:03.605Z,83.90
2019-05-10T20:51:32.241Z,83.80
2019-05-10T20:54:04.252Z,84.10
2019-05-10T20:56:32.842Z,84.80
2019-05-10T20:59:01.450Z,84.90
2019-05-10T21:01:30.093Z,85.60
2019-05-10T21:03:58.688Z,85.40
2019-05-10T21:06:30.628Z,85.80
2019-05-10T21:08:59.184Z,86.10
2019-05-10T21:11:27.673Z,86.20
2019-05-10T21:13:58.015Z,85.60
2019-05-10T21:16:26.332Z,86.40
2019-05-10T21:18:54.806Z,85.80
2019-05-10T21:21:23.396Z,86.00
2019-05-10T21:23:51.866Z,86.10
2019-05-10T21:26:20.366Z,86.00
2019-05-10T21:28:48.907Z,86.90
2019-05-10T21:31:17.380Z,87.70
2019-05-10T21:33:45.940Z,88.40
2019-05-10T21:36:16.137Z,88.20
2019-05-10T21:38:44.702Z,89.10
2019-05-10T21:41:13.173Z,88.10
2019-05-10T21:43:41.653Z,87.20
2019-05-10T21:46:10.148Z,87.20
2019-05-10T21:48:38.689Z,87.60
2019-05-10T21:51:07.521Z,88.10
2019-05-10T21:53:37.695Z,87.80
2019-05-10T21:56:06.282Z,88.40
2019-05-10T21:58:36.879Z,87.90
2019-05-10T22:01:05.514Z,87.00
2019-05-10T22:03:33.994Z,87.80
2019-05-10T22:06:02.532Z,88.40
2019-05-10T22:08:31.012Z,88.20
2019-05-10T22:10:59.536Z,88.30
2019-05-10T22:13:28.025Z,89.00
2019-05-10T22:15:56.489Z,89.40
2019-05-10T22:18:24.990Z,89.60
2019-05-10T22:20:53.538Z,89.30
2019-05-10T22:23:22.102Z,89.40
2019-05-10T22:25:50.601Z,89.30
2019-05-10T22:28:19.367Z,89.30
2019-05-10T22:30:48.121Z,89.30
2019-05-10T22:33:16.598Z,88.70
2019-05-10T22:35:45.459Z,88.90
2019-05-10T22:38:14.258Z,89.20
2019-05-10T22:40:42.718Z,89.60
2019-05-10T22:43:11.209Z,90.10
2019-05-10T22:45:39.689Z,90.00
2019-05-10T22:48:08.178Z,90.10
2019-05-10T22:50:36.660Z,90.50
2019-05-10T22:53:05.124Z,90.30
2019-05-10T22:55:33.666Z,90.40
2019-05-10T22:58:02.259Z,90.10
2019-05-10T23:00:30.915Z,90.10
2019-05-10T23:02:59.667Z,90.40
2019-05-10T23:05:28.154Z,90.40
2019-05-10T23:07:56.937Z,90.30
2019-05-10T23:10:25.413Z,90.20
2019-05-10T23:12:56.708Z,90.20
2019-05-10T23:15:26.903Z,90.10
2019-05-10T23:17:57.392Z,90.10
2019-05-10T23:20:25.941Z,90.10
2019-05-10T23:22:54.432Z,90.50
2019-05-10T23:25:24.556Z,90.70
2019-05-10T23:27:53.039Z,90.70
2019-05-10T23:30:21.576Z,90.60
2019-05-10T23:32:50.135Z,90.40
2019-05-10T23:35:18.663Z,90.60
2019-05-10T23:37:47.127Z,90.80
2019-05-10T23:40:15.691Z,91.00
2019-05-10T23:42:44.161Z,91.10
2019-05-10T23:45:12.877Z,91.20
2019-05-10T23:47:41.377Z,91.30
2019-05-10T23:50:10.011Z,91.30
2019-05-10T23:52:38.507Z,91.50
2019-05-10T23:55:07.231Z,91.10
2019-05-10T23:57:35.761Z,90.90
